Time;durP1;ratioP1;P1;durP2;ratioP2;P2;SDS_P1;SDS_P2;PMS_P1;PMS_P2;Temp;Humidity;BMP_temperature;BMP_pressure;BME280_temperature;BME280_humidity;BME280_pressure;Samples;Min_cycle;Max_cycle;Signal;HPM_P1;HPM_P2
2023/03/26 00:01:04;;;;;;;2.63;1.50;;;;;;;11.87;58.89;99097.22;5033178;28;20205;-78
2023/03/26 00:03:31;;;;;;;3.13;1.73;;;;;;;11.85;58.91;99088.59;5038126;28;21360;-78
2023/03/26 00:06:07;;;;;;;2.55;1.52;;;;;;;11.83;59.03;99101.03;5036638;28;20205;-78
2023/03/26 00:08:34;;;;;;;3.90;2.15;;;;;;;11.82;58.86;99091.44;5038601;28;20256;-78
2023/03/26 00:11:00;;;;;;;3.88;2.03;;;;;;;11.81;58.96;99097.69;5035988;28;20252;-78
2023/03/26 00:13:26;;;;;;;4.50;1.83;;;;;;;11.77;58.90;99097.06;5037485;28;20283;-78
2023/03/26 00:15:51;;;;;;;5.20;1.70;;;;;;;11.78;58.89;99095.28;5034717;28;20342;-78
2023/03/26 00:18:23;;;;;;;3.90;1.80;;;;;;;11.78;58.91;99096.13;5038780;28;20232;-78
2023/03/26 00:20:50;;;;;;;3.63;1.65;;;;;;;11.77;58.62;99088.34;5037271;28;20344;-78
2023/03/26 00:23:15;;;;;;;6.20;1.95;;;;;;;11.77;58.60;99091.78;5031596;28;20252;-79
2023/03/26 00:25:42;;;;;;;2.13;1.60;;;;;;;11.78;58.39;99087.41;5035046;28;21350;-79
2023/03/26 00:28:08;;;;;;;2.55;1.40;;;;;;;11.78;58.37;99093.50;5038638;28;20327;-79
2023/03/26 00:30:34;;;;;;;3.25;1.50;;;;;;;11.79;58.09;99094.31;5035215;28;20236;-79
2023/03/26 00:33:06;;;;;;;5.68;1.38;;;;;;;11.79;58.07;99096.97;5042503;28;20220;-79
2023/03/26 00:35:35;;;;;;;5.07;1.90;;;;;;;11.81;58.01;99087.16;5039875;28;20452;-80
2023/03/26 00:38:01;;;;;;;3.65;1.30;;;;;;;11.81;57.99;99087.16;5042396;28;20213;-80
2023/03/26 00:40:26;;;;;;;3.63;1.47;;;;;;;11.81;57.49;99088.00;5044636;28;20784;-79
2023/03/26 00:42:52;;;;;;;4.07;1.30;;;;;;;11.81;57.58;99082.72;5045750;28;20201;-79
2023/03/26 00:45:20;;;;;;;10.30;1.80;;;;;;;11.82;57.42;99079.13;5043101;28;20627;-79
2023/03/26 00:47:45;;;;;;;3.47;1.65;;;;;;;11.82;57.45;99078.28;5042706;28;20328;-79
2023/03/26 00:50:15;;;;;;;7.13;1.53;;;;;;;11.80;57.27;99081.06;5042559;28;20324;-80
2023/03/26 00:52:42;;;;;;;3.70;2.00;;;;;;;11.81;57.27;99076.63;5047191;28;20232;-79
2023/03/26 00:55:09;;;;;;;4.57;2.10;;;;;;;11.79;57.20;99070.63;5046285;28;20228;-79
2023/03/26 00:57:36;;;;;;;5.10;2.03;;;;;;;11.77;57.19;99065.47;5046833;28;20755;-79
2023/03/26 01:00:08;;;;;;;5.50;1.48;;;;;;;11.77;57.20;99075.19;5050015;28;20645;-80
2023/03/26 01:02:33;;;;;;;4.43;1.80;;;;;;;11.77;56.99;99070.75;5047598;28;20541;-79
2023/03/26 01:05:02;;;;;;;4.40;1.57;;;;;;;11.75;56.95;99056.91;5048482;28;20554;-79
2023/03/26 01:07:29;;;;;;;3.80;1.75;;;;;;;11.76;56.91;99055.09;5049896;28;20247;-80
2023/03/26 01:09:57;;;;;;;4.65;1.67;;;;;;;11.76;56.68;99047.19;5050057;28;20248;-77
2023/03/26 01:12:30;;;;;;;3.53;1.55;;;;;;;11.76;56.52;99049.84;5042521;28;20221;-78
2023/03/26 01:14:59;;;;;;;6.70;1.85;;;;;;;11.76;56.30;99039.31;5042436;28;20771;-78
2023/03/26 01:17:32;;;;;;;3.40;1.45;;;;;;;11.76;56.29;99037.50;5042862;28;20237;-78
2023/03/26 01:20:13;;;;;;;2.67;1.40;;;;;;;11.77;55.88;99033.09;5042682;28;20864;-79
2023/03/26 01:22:48;;;;;;;6.43;2.65;;;;;;;11.76;55.78;99029.63;5042047;28;20208;-78
2023/03/26 01:25:14;;;;;;;6.95;1.65;;;;;;;11.77;55.90;99019.94;5042421;28;20683;-78
2023/03/26 01:27:50;;;;;;;1.87;1.60;;;;;;;11.78;55.58;99011.09;5040586;28;20225;-77
2023/03/26 01:30:41;;;;;;;5.40;1.42;;;;;;;11.75;55.33;98999.00;5041091;28;20255;-78
2023/03/26 01:33:22;;;;;;;2.30;1.25;;;;;;;11.74;55.27;98992.88;5043066;28;20270;-78
2023/03/26 01:36:22;;;;;;;6.35;1.95;;;;;;;11.76;55.10;98973.53;5041040;28;21006;-79
2023/03/26 01:38:58;;;;;;;3.78;1.50;;;;;;;11.74;55.01;98969.22;5043075;28;20275;-78
2023/03/26 01:41:32;;;;;;;4.40;1.30;;;;;;;11.73;54.61;98964.09;5035015;28;20228;-78
2023/03/26 01:44:34;;;;;;;4.57;1.80;;;;;;;11.69;54.87;98945.09;5029009;28;20208;-79
2023/03/26 01:47:00;;;;;;;5.20;1.75;;;;;;;11.67;55.08;98944.34;5030811;28;20664;-79
2023/03/26 01:49:27;;;;;;;3.30;1.70;;;;;;;11.66;54.84;98937.41;5039533;28;20837;-79
2023/03/26 01:51:55;;;;;;;4.50;1.58;;;;;;;11.66;54.79;98926.88;5031067;28;20584;-79
2023/03/26 01:54:24;;;;;;;4.18;1.65;;;;;;;11.64;54.76;98920.09;5045630;28;20205;-80
2023/03/26 01:57:05;;;;;;;1.63;1.10;;;;;;;11.63;54.92;98923.66;5041236;28;20234;-80
2023/03/26 01:59:55;;;;;;;3.03;1.50;;;;;;;11.60;54.96;98913.41;5042212;28;20232;-79
2023/03/26 02:02:35;;;;;;;4.63;1.48;;;;;;;11.59;54.89;98914.38;5043361;28;20853;-80
2023/03/26 02:05:14;;;;;;;5.97;1.85;;;;;;;11.58;54.87;98912.66;5047422;28;20468;-80
2023/03/26 02:07:57;;;;;;;4.45;1.63;;;;;;;11.55;54.95;98903.22;5040603;28;20741;-80
2023/03/26 02:10:37;;;;;;;1.63;1.20;;;;;;;11.56;54.72;98899.66;5050808;28;20689;-82
2023/03/26 02:13:04;;;;;;;3.08;1.55;;;;;;;11.57;54.70;98884.72;5055254;28;20566;-82
2023/03/26 02:15:31;;;;;;;6.28;1.60;;;;;;;11.57;54.60;98885.53;5039906;28;20346;-80
2023/03/26 02:17:58;;;;;;;2.88;1.85;;;;;;;11.58;54.66;98886.38;5043930;28;20702;-80
2023/03/26 02:20:28;;;;;;;3.95;1.45;;;;;;;11.60;54.54;98882.66;5043331;28;20197;-81
2023/03/26 02:22:58;;;;;;;11.18;2.00;;;;;;;11.60;54.71;98874.78;5046974;28;20212;-80
2023/03/26 02:25:25;;;;;;;6.80;1.45;;;;;;;11.60;54.61;98863.41;5043351;28;20205;-81
2023/03/26 02:27:52;;;;;;;5.30;1.60;;;;;;;11.60;54.50;98869.50;5038738;28;20217;-81
2023/03/26 02:30:24;;;;;;;8.32;1.73;;;;;;;11.61;54.35;98855.41;5038490;28;20744;-80
2023/03/26 02:32:52;;;;;;;4.90;1.60;;;;;;;11.63;54.22;98845.59;5043318;28;20327;-81
2023/03/26 02:35:23;;;;;;;4.45;2.10;;;;;;;11.64;54.33;98831.50;5034771;28;20447;-83
2023/03/26 02:37:54;;;;;;;4.88;1.70;;;;;;;11.65;54.38;98832.31;5044660;28;20216;-81
2023/03/26 02:40:21;;;;;;;3.67;1.35;;;;;;;11.65;54.27;98830.53;5049999;28;20198;-82
2023/03/26 02:42:48;;;;;;;5.43;1.90;;;;;;;11.66;54.30;98836.63;5043139;28;20228;-80
2023/03/26 02:45:14;;;;;;;3.88;1.33;;;;;;;11.65;54.42;98829.69;5040130;28;20228;-82
2023/03/26 02:48:03;;;;;;;6.97;1.40;;;;;;;11.63;54.42;98831.59;5018355;28;20237;-81
2023/03/26 02:50:53;;;;;;;8.10;2.65;;;;;;;11.61;54.41;98828.25;5046711;28;20246;-80
2023/03/26 02:53:38;;;;;;;4.07;1.60;;;;;;;11.56;54.72;98804.09;5050167;28;20221;-80
2023/03/26 02:56:17;;;;;;;1.67;1.50;;;;;;;11.54;54.86;98812.16;5039505;28;20262;-81
2023/03/26 02:58:57;;;;;;;5.20;2.10;;;;;;;11.52;54.78;98806.16;5025697;28;20233;-81
2023/03/26 03:01:22;;;;;;;6.43;1.33;;;;;;;11.54;54.87;98806.06;5033268;28;20190;-80
2023/03/26 03:04:16;;;;;;;3.30;1.50;;;;;;;11.52;54.92;98804.38;5042808;28;20251;-83
2023/03/26 03:06:43;;;;;;;3.38;1.30;;;;;;;11.52;54.96;98803.53;5045127;28;20239;-81
2023/03/26 03:09:10;;;;;;;8.00;4.35;;;;;;;11.51;54.98;98801.88;5043619;28;20234;-80
2023/03/26 03:11:37;;;;;;;2.92;1.40;;;;;;;11.51;55.01;98797.44;5043848;28;20572;-81
2023/03/26 03:14:04;;;;;;;3.80;1.83;;;;;;;11.53;54.84;98794.69;5038336;28;20217;-81
2023/03/26 03:16:31;;;;;;;3.83;1.58;;;;;;;11.51;54.92;98784.28;5039992;28;20252;-81
2023/03/26 03:19:02;;;;;;;5.50;2.10;;;;;;;11.52;54.77;98772.81;5043857;28;20308;-81
2023/03/26 03:21:39;;;;;;;3.08;1.27;;;;;;;11.51;54.70;98752.72;5042119;28;20331;-81
2023/03/26 03:24:23;;;;;;;7.97;2.55;;;;;;;11.49;54.83;98735.41;5044832;28;20208;-80
2023/03/26 03:26:53;;;;;;;3.75;1.50;;;;;;;11.44;55.23;98724.44;5035536;28;20204;-81
2023/03/26 03:29:42;;;;;;;1.60;1.45;;;;;;;11.41;55.19;98722.88;5040315;28;20206;-81
2023/03/26 03:32:31;;;;;;;10.93;1.50;;;;;;;11.40;55.46;98739.63;5038774;28;20209;-81
2023/03/26 03:35:01;;;;;;;7.95;1.75;;;;;;;11.39;55.58;98731.84;5043698;28;20678;-81
2023/03/26 03:37:30;;;;;;;5.50;1.70;;;;;;;11.39;55.79;98734.47;5042744;28;20201;-81
2023/03/26 03:39:57;;;;;;;6.22;1.42;;;;;;;11.38;56.16;98735.44;5033579;28;20208;-81
2023/03/26 03:42:28;;;;;;;2.10;1.50;;;;;;;11.37;56.48;98726.72;5043984;28;20208;-81
2023/03/26 03:45:01;;;;;;;11.25;1.85;;;;;;;11.37;56.82;98710.09;5044834;28;20205;-81
2023/03/26 03:48:05;;;;;;;3.15;1.00;;;;;;;11.28;57.28;98711.69;5041424;28;20235;-81
2023/03/26 03:50:40;;;;;;;3.15;1.73;;;;;;;11.23;57.62;98712.06;4652203;28;10001299;-81
2023/03/26 03:53:24;;;;;;;1.58;0.88;;;;;;;11.18;58.03;98714.25;5049152;28;20200;-81
2023/03/26 03:55:53;;;;;;;3.78;1.33;;;;;;;11.14;58.11;98715.44;5042650;28;20880;-80
2023/03/26 03:58:22;;;;;;;3.17;1.75;;;;;;;11.13;58.33;98705.06;5040426;28;20216;-81
2023/03/26 04:00:51;;;;;;;2.53;1.42;;;;;;;11.12;58.63;98701.56;5036656;28;20187;-80
2023/03/26 04:03:37;;;;;;;3.25;1.33;;;;;;;11.09;58.70;98699.19;5039867;28;20201;-81
2023/03/26 04:06:09;;;;;;;3.90;1.90;;;;;;;11.11;59.96;98694.66;5040964;28;20479;-81
2023/03/26 04:08:36;;;;;;;5.88;1.80;;;;;;;11.03;60.72;98689.19;5040744;28;20471;-81
2023/03/26 04:11:04;;;;;;;2.58;1.40;;;;;;;10.91;60.99;98677.00;5043025;28;20206;-81
2023/03/26 04:14:03;;;;;;;6.07;1.80;;;;;;;10.70;62.01;98663.81;5040912;28;20188;-81
2023/03/26 04:16:44;;;;;;;3.83;1.90;;;;;;;10.62;62.06;98672.28;5041885;28;20229;-81
2023/03/26 04:19:10;;;;;;;5.43;2.00;;;;;;;10.56;62.37;98657.84;5040198;28;20234;-80
2023/03/26 04:21:36;;;;;;;5.87;2.13;;;;;;;10.53;62.55;98660.72;5042028;28;20205;-80
2023/03/26 04:24:03;;;;;;;6.33;2.00;;;;;;;10.49;62.75;98647.94;5042500;28;20799;-80
2023/03/26 04:26:51;;;;;;;3.08;1.30;;;;;;;10.48;62.75;98639.25;5040877;28;20251;-81
2023/03/26 04:29:26;;;;;;;2.10;1.40;;;;;;;10.50;62.68;98637.31;5044994;28;20207;-80
2023/03/26 04:32:05;;;;;;;4.75;1.63;;;;;;;10.54;62.68;98633.50;5033399;28;20203;-81
2023/03/26 04:34:32;;;;;;;1.58;1.48;;;;;;;10.57;62.56;98627.19;5038031;28;20187;-80
2023/03/26 04:37:25;;;;;;;2.75;1.60;;;;;;;10.53;62.89;98616.09;5041670;28;20361;-80
2023/03/26 04:40:09;;;;;;;4.13;1.60;;;;;;;10.53;62.99;98616.09;5038605;28;20185;-80
2023/03/26 04:42:40;;;;;;;6.68;2.03;;;;;;;10.53;63.00;98607.34;5049556;28;20317;-80
2023/03/26 04:45:21;;;;;;;8.43;1.52;;;;;;;10.51;63.39;98591.75;5045740;28;20185;-80
2023/03/26 04:47:50;;;;;;;8.20;1.75;;;;;;;10.44;63.69;98581.84;5045037;28;20214;-80
2023/03/26 04:50:15;;;;;;;5.80;2.07;;;;;;;10.38;63.99;98597.13;5050280;28;20219;-80
2023/03/26 04:52:42;;;;;;;2.60;1.50;;;;;;;10.37;63.91;98603.34;5040068;28;20556;-79
2023/03/26 04:55:39;;;;;;;5.20;1.92;;;;;;;10.40;63.80;98600.47;5044323;28;20221;-79
2023/03/26 04:58:14;;;;;;;3.08;1.77;;;;;;;10.44;63.84;98590.53;5048292;28;20205;-80
2023/03/26 05:00:50;;;;;;;2.80;1.50;;;;;;;10.49;63.66;98580.53;5055979;28;20190;-80
2023/03/26 05:03:15;;;;;;;2.57;1.30;;;;;;;10.54;63.42;98574.91;5056003;28;20184;-80
2023/03/26 05:05:42;;;;;;;4.85;2.95;;;;;;;10.58;64.07;98577.16;5053284;28;20438;-80
2023/03/26 05:08:08;;;;;;;2.20;1.60;;;;;;;10.61;64.27;98568.19;5056443;28;20241;-80
2023/03/26 05:10:33;;;;;;;5.53;3.53;;;;;;;10.62;63.90;98562.00;5047479;28;20207;-80
2023/03/26 05:13:04;;;;;;;4.68;2.28;;;;;;;10.60;63.98;98558.66;5049246;28;20193;-80
2023/03/26 05:15:33;;;;;;;5.30;2.20;;;;;;;10.59;64.20;98559.63;5049634;28;20252;-79
2023/03/26 05:18:07;;;;;;;4.88;2.28;;;;;;;10.59;64.30;98563.06;5049218;28;20450;-80
2023/03/26 05:20:39;;;;;;;2.60;1.45;;;;;;;10.64;64.11;98560.09;5050499;28;20188;-80
2023/03/26 05:23:06;;;;;;;2.55;1.20;;;;;;;10.68;63.83;98550.16;5049409;28;20194;-80
2023/03/26 05:25:35;;;;;;;4.28;1.63;;;;;;;10.76;63.27;98550.38;5049764;28;20214;-80
2023/03/26 05:28:03;;;;;;;4.57;1.40;;;;;;;10.85;62.77;98547.84;5047147;28;20213;-80
2023/03/26 05:30:36;;;;;;;6.78;2.47;;;;;;;10.96;62.33;98538.22;5049945;28;20211;-80
2023/03/26 05:33:03;;;;;;;3.38;1.02;;;;;;;11.04;61.79;98541.91;5049662;28;20201;-80
2023/03/26 05:35:34;;;;;;;3.85;1.48;;;;;;;11.14;61.42;98530.63;5046836;28;20174;-80
2023/03/26 05:38:00;;;;;;;5.10;1.33;;;;;;;11.19;61.03;98513.50;5045836;28;20213;-80
2023/03/26 05:40:25;;;;;;;1.70;1.30;;;;;;;11.26;60.90;98501.53;5045764;28;20442;-80
2023/03/26 05:43:02;;;;;;;1.95;1.42;;;;;;;11.29;60.80;98500.44;5049516;28;20194;-80
2023/03/26 05:45:34;;;;;;;1.83;1.35;;;;;;;11.32;60.88;98492.28;5046552;28;20190;-80
2023/03/26 05:48:10;;;;;;;3.10;1.08;;;;;;;11.34;60.93;98477.22;5061213;28;20178;-80
2023/03/26 05:50:36;;;;;;;1.27;1.03;;;;;;;11.37;60.88;98473.47;5043018;28;20218;-80
2023/03/26 05:53:02;;;;;;;2.97;1.20;;;;;;;11.39;60.79;98463.66;5047939;28;20208;-80
2023/03/26 05:56:00;;;;;;;4.60;1.00;;;;;;;11.41;60.83;98467.00;5039166;28;20368;-80
2023/03/26 05:58:50;;;;;;;1.73;1.30;;;;;;;11.43;60.97;98467.72;5045050;28;20391;-80
2023/03/26 06:01:34;;;;;;;2.88;1.60;;;;;;;11.46;60.98;98454.31;5043765;28;20215;-80
2023/03/26 06:04:17;;;;;;;1.95;1.60;;;;;;;11.46;60.91;98441.16;5042796;28;20316;-81
2023/03/26 06:07:11;;;;;;;2.63;1.85;;;;;;;11.50;60.87;98443.41;5038701;28;20231;-80
2023/03/26 06:09:39;;;;;;;2.08;1.15;;;;;;;11.51;61.09;98424.00;5045788;28;20177;-80
2023/03/26 06:12:06;;;;;;;2.45;1.17;;;;;;;11.51;61.01;98423.19;5038665;28;20222;-80
2023/03/26 06:14:32;;;;;;;2.30;1.80;;;;;;;11.52;61.11;98412.50;5045758;28;20207;-81
2023/03/26 06:17:21;;;;;;;5.30;2.05;;;;;;;11.54;61.14;98416.81;5041708;28;20212;-81
2023/03/26 06:20:13;;;;;;;2.00;1.65;;;;;;;11.56;61.12;98412.25;5036580;28;20217;-80
2023/03/26 06:22:47;;;;;;;3.20;2.08;;;;;;;11.59;61.12;98410.19;5039246;28;20258;-82
2023/03/26 06:25:17;;;;;;;1.83;1.15;;;;;;;11.63;61.20;98413.38;5047616;28;20200;-80
2023/03/26 06:28:04;;;;;;;4.00;1.45;;;;;;;11.64;61.12;98418.53;5044466;28;20213;-80
2023/03/26 06:30:50;;;;;;;1.25;1.10;;;;;;;11.68;61.13;98408.56;5040047;28;20291;-80
2023/03/26 06:33:34;;;;;;;2.10;1.50;;;;;;;11.70;61.01;98412.72;5044672;28;20204;-80
2023/03/26 06:35:59;;;;;;;1.87;1.77;;;;;;;11.74;61.02;98414.09;5039927;28;20249;-80
2023/03/26 06:38:25;;;;;;;2.93;2.03;;;;;;;11.77;61.22;98399.03;5043408;28;20197;-80
2023/03/26 06:40:51;;;;;;;3.10;1.80;;;;;;;11.78;61.21;98404.16;5045474;28;20217;-80
2023/03/26 06:43:25;;;;;;;4.05;2.08;;;;;;;11.78;61.15;98398.06;5044223;28;20284;-80
2023/03/26 06:46:17;;;;;;;3.67;1.70;;;;;;;11.81;61.07;98405.69;5038889;28;20664;-80
2023/03/26 06:49:01;;;;;;;2.85;1.70;;;;;;;11.83;61.38;98401.13;5039279;28;20230;-80
2023/03/26 06:51:46;;;;;;;2.30;1.77;;;;;;;11.83;61.43;98396.69;5042785;28;20609;-80
2023/03/26 06:54:30;;;;;;;3.20;1.92;;;;;;;11.84;61.38;98394.91;5044577;28;20203;-80
2023/03/26 06:57:14;;;;;;;2.97;1.70;;;;;;;11.83;61.56;98390.63;5041897;28;20269;-80
2023/03/26 06:59:58;;;;;;;2.80;1.50;;;;;;;11.83;62.06;98380.91;5045089;28;20202;-79
2023/03/26 07:02:42;;;;;;;3.25;1.85;;;;;;;11.79;62.56;98389.22;5047447;28;20333;-80
2023/03/26 07:05:26;;;;;;;3.20;2.30;;;;;;;11.76;63.51;98374.53;5047820;28;20434;-79
2023/03/26 07:08:17;;;;;;;1.60;1.50;;;;;;;11.73;64.11;98385.31;5013916;28;20240;-80
2023/03/26 07:11:12;;;;;;;3.05;1.35;;;;;;;11.70;64.12;98391.69;5033246;28;20297;-79
2023/03/26 07:14:10;;;;;;;2.33;2.10;;;;;;;11.69;64.40;98390.03;5021506;28;20265;-80
2023/03/26 07:17:02;;;;;;;3.83;1.50;;;;;;;11.67;64.41;98375.34;5045127;28;20540;-80
2023/03/26 07:20:00;;;;;;;2.03;1.58;;;;;;;11.64;64.47;98367.72;5017120;28;20699;-80
2023/03/26 07:22:26;;;;;;;3.70;2.53;;;;;;;11.65;64.47;98378.09;5036243;28;20219;-80
2023/03/26 07:24:57;;;;;;;3.55;1.50;;;;;;;11.67;64.42;98375.34;5032807;28;20601;-80
2023/03/26 07:27:59;;;;;;;4.32;1.65;;;;;;;11.67;64.25;98360.38;5034905;28;20296;-79
2023/03/26 07:31:01;;;;;;;2.42;1.42;;;;;;;11.67;64.58;98381.44;5034614;28;20230;-79
2023/03/26 07:33:48;;;;;;;2.17;1.60;;;;;;;11.67;64.59;98370.91;5035564;28;21029;-79
2023/03/26 07:36:58;;;;;;;2.75;1.35;;;;;;;11.65;65.07;98385.16;5005605;28;20212;-80
2023/03/26 07:39:49;;;;;;;4.28;1.30;;;;;;;11.67;64.86;98396.38;5037198;28;20221;-80
2023/03/26 07:42:56;;;;;;;2.08;1.10;;;;;;;11.69;64.85;98394.44;5019181;28;20215;-80
2023/03/26 07:45:35;;;;;;;1.30;1.13;;;;;;;11.69;65.05;98397.91;5036453;28;20247;-79
2023/03/26 07:48:25;;;;;;;1.27;1.17;;;;;;;11.68;64.86;98408.56;5045454;28;20215;-80
2023/03/26 07:51:14;;;;;;;2.78;2.45;;;;;;;11.69;65.23;98400.56;5034300;28;20228;-79
2023/03/26 07:53:59;;;;;;;6.13;1.77;;;;;;;11.67;65.50;98397.22;5036481;28;20245;-78
2023/03/26 07:57:12;;;;;;;1.60;1.27;;;;;;;11.65;66.03;98398.31;5045052;28;20223;-79
2023/03/26 07:59:56;;;;;;;5.63;1.55;;;;;;;11.61;66.37;98399.53;5024804;28;20204;-79
2023/03/26 08:02:44;;;;;;;2.47;1.50;;;;;;;11.60;66.63;98400.50;5040789;28;20853;-79
2023/03/26 08:05:56;;;;;;;3.08;1.52;;;;;;;11.62;67.02;98406.47;4988125;28;20211;-79
2023/03/26 08:08:50;;;;;;;4.93;1.20;;;;;;;11.61;67.23;98410.06;5048295;28;20284;-80
2023/03/26 08:12:05;;;;;;;3.38;1.40;;;;;;;11.56;67.48;98401.72;5049974;28;20267;-79
2023/03/26 08:14:57;;;;;;;2.10;1.25;;;;;;;11.56;67.40;98397.31;5051087;28;20194;-80
2023/03/26 08:17:34;;;;;;;1.23;0.90;;;;;;;11.57;67.25;98396.34;5059298;28;20218;-80
2023/03/26 08:20:29;;;;;;;1.55;1.10;;;;;;;11.61;66.79;98396.91;5052174;28;20212;-79
2023/03/26 08:23:15;;;;;;;1.88;1.08;;;;;;;11.70;66.22;98391.69;5051293;28;20212;-79
2023/03/26 08:26:08;;;;;;;3.40;1.60;;;;;;;12.05;65.35;98403.56;5061193;28;20188;-79
2023/03/26 08:28:57;;;;;;;3.13;0.90;;;;;;;12.96;62.83;98401.44;5050337;28;20202;-81
2023/03/26 08:31:37;;;;;;;2.15;1.05;;;;;;;13.78;60.55;98404.34;5048159;28;20210;-80
2023/03/26 08:34:03;;;;;;;1.40;1.10;;;;;;;14.50;58.14;98400.78;5049645;28;20264;-81
2023/03/26 08:36:28;;;;;;;1.00;0.90;;;;;;;15.00;56.63;98409.94;5046921;28;20281;-81
2023/03/26 08:38:58;;;;;;;3.03;1.03;;;;;;;15.22;55.47;98393.53;5053163;28;20214;-81
2023/03/26 08:41:52;;;;;;;1.65;1.10;;;;;;;15.83;53.87;98396.16;5049366;28;20185;-81
2023/03/26 08:44:46;;;;;;;4.10;1.10;;;;;;;16.74;50.82;98382.88;5050234;28;20588;-80
2023/03/26 08:47:45;;;;;;;2.47;1.60;;;;;;;17.31;49.13;98378.47;5049765;28;20182;-80
2023/03/26 08:50:30;;;;;;;4.78;1.98;;;;;;;17.73;48.00;98367.50;5047907;28;20228;-80
2023/03/26 08:53:15;;;;;;;2.90;2.03;;;;;;;18.05;47.01;98373.69;5047620;28;20200;-80
2023/03/26 08:55:50;;;;;;;2.30;1.38;;;;;;;18.28;46.46;98379.84;5050425;28;20268;-80
2023/03/26 08:58:32;;;;;;;1.55;1.45;;;;;;;18.47;45.79;98385.69;5052462;28;20221;-80
2023/03/26 09:01:07;;;;;;;2.08;1.27;;;;;;;18.65;45.50;98396.84;5050177;28;20220;-80
2023/03/26 09:03:45;;;;;;;8.63;2.85;;;;;;;18.63;45.24;98382.06;5051675;28;20185;-80
2023/03/26 09:06:14;;;;;;;1.50;1.33;;;;;;;18.61;45.10;98389.41;5050665;28;20547;-80
2023/03/26 09:09:07;;;;;;;1.67;1.45;;;;;;;18.50;45.81;98388.84;5055092;28;20221;-80
2023/03/26 09:11:45;;;;;;;5.07;1.38;;;;;;;18.59;45.71;98392.25;5052100;28;20233;-80
2023/03/26 09:14:22;;;;;;;2.85;1.40;;;;;;;18.70;45.54;98383.84;5049314;28;21375;-80
2023/03/26 09:17:16;;;;;;;2.55;1.33;;;;;;;18.63;45.46;98390.88;5053738;28;20274;-80
2023/03/26 09:19:50;;;;;;;1.52;1.33;;;;;;;18.28;45.76;98386.97;5046595;28;20352;-80
2023/03/26 09:22:39;;;;;;;3.80;1.85;;;;;;;17.99;46.22;98387.69;5047270;28;20186;-79
2023/03/26 09:25:26;;;;;;;2.08;1.25;;;;;;;17.76;46.69;98376.97;5047783;28;20203;-80
2023/03/26 09:28:39;;;;;;;4.32;2.67;;;;;;;17.65;47.44;98383.50;5050861;28;20699;-80
2023/03/26 09:31:23;;;;;;;2.35;1.20;;;;;;;17.34;47.65;98376.31;4993335;28;20236;-80
2023/03/26 09:33:55;;;;;;;5.25;1.73;;;;;;;16.99;48.05;98380.22;5049850;28;20660;-80
2023/03/26 09:36:47;;;;;;;2.33;1.23;;;;;;;16.69;48.04;98371.09;5052312;28;20447;-80
2023/03/26 09:39:41;;;;;;;5.13;1.65;;;;;;;16.50;46.57;98367.81;5026808;28;20198;-80
2023/03/26 09:42:29;;;;;;;2.47;1.30;;;;;;;16.21;46.58;98362.97;5052908;28;20248;-79
2023/03/26 09:45:12;;;;;;;3.05;1.38;;;;;;;15.92;46.45;98360.75;5048816;28;20767;-79
2023/03/26 09:51:19;;;;;;;1.60;1.08;;;;;;;15.40;47.11;98382.91;4946354;28;20571;-90
2023/03/26 09:53:55;;;;;;;3.15;1.40;;;;;;;15.24;47.18;98388.94;4944245;28;21013;-89
2023/03/26 09:57:02;;;;;;;1.75;1.27;;;;;;;15.15;46.85;98381.94;4931546;28;21086;-90
2023/03/26 10:00:23;;;;;;;3.28;1.23;;;;;;;15.22;47.00;98387.44;4950298;28;21046;-90
2023/03/26 10:03:11;;;;;;;1.17;1.08;;;;;;;15.65;45.17;98383.00;4959402;28;20316;-90
2023/03/26 10:05:53;;;;;;;9.13;2.00;;;;;;;16.07;44.16;98387.47;4948632;28;20222;-89
2023/03/26 10:09:22;;;;;;;;;;;;;;;;;;;;;
2023/03/26 10:11:56;;;;;;;1.48;1.10;;;;;;;17.12;39.93;98383.19;4951204;28;20225;-88
2023/03/26 10:14:57;;;;;;;1.98;1.42;;;;;;;17.45;38.37;98405.13;4944413;28;20196;-90
2023/03/26 10:17:51;;;;;;;;;;;;;;;;;;;;;
2023/03/26 10:20:48;;;;;;;1.80;0.88;;;;;;;17.84;40.53;98412.31;4948870;28;20189;-89
2023/03/26 10:23:52;;;;;;;1.75;1.00;;;;;;;17.85;41.59;98410.50;4931891;28;20189;-89
2023/03/26 10:26:37;;;;;;;2.47;1.00;;;;;;;17.84;42.25;98409.66;4946146;28;20196;-89
2023/03/26 10:29:42;;;;;;;;;;;;;;;;;;;;;
2023/03/26 10:32:42;;;;;;;2.17;1.05;;;;;;;17.99;41.68;98411.59;4942105;28;20200;-90
2023/03/26 10:35:39;;;;;;;1.42;1.00;;;;;;;18.23;41.12;98392.84;4947023;28;20202;-89
2023/03/26 10:38:33;;;;;;;2.97;1.40;;;;;;;18.40;39.27;98393.56;4930996;28;20255;-90
2023/03/26 10:41:43;;;;;;;;;;;;;;;;;;;;;
2023/03/26 10:44:36;;;;;;;3.37;1.53;;;;;;;18.48;36.08;98390.84;4956524;28;20456;-90
2023/03/26 10:47:25;;;;;;;1.90;0.90;;;;;;;18.43;35.00;98387.06;4943265;28;20647;-89
2023/03/26 10:50:14;;;;;;;1.70;1.23;;;;;;;18.40;34.76;98382.09;4963814;28;20994;-90
2023/03/26 10:53:02;;;;;;;1.80;1.40;;;;;;;18.29;33.84;98380.69;4964330;28;20468;-88
2023/03/26 10:55:33;;;;;;;2.03;1.40;;;;;;;18.08;33.80;98383.97;4968015;28;20479;-88
2023/03/26 10:58:16;;;;;;;1.90;1.50;;;;;;;18.09;34.01;98382.94;4965311;28;20897;-90
2023/03/26 11:01:09;;;;;;;3.97;1.50;;;;;;;18.24;34.38;98377.72;4914349;28;20452;-89
2023/03/26 11:04:11;;;;;;;3.87;1.47;;;;;;;18.33;33.68;98374.84;4948645;28;21032;-90
2023/03/26 11:07:15;;;;;;;;;;;;;;;;;;;;;
2023/03/26 11:09:50;;;;;;;1.87;1.10;;;;;;;18.29;33.82;98373.53;4938971;28;20459;-89
2023/03/26 11:12:53;;;;;;;2.40;1.00;;;;;;;18.13;34.30;98381.59;4943279;28;20475;-89
2023/03/26 11:16:31;;;;;;;1.23;0.80;;;;;;;18.08;34.76;98363.53;4944150;28;20446;-90
2023/03/26 11:19:12;;;;;;;1.00;0.90;;;;;;;17.97;34.78;98366.59;4943209;28;20455;-90
2023/03/26 11:21:56;;;;;;;1.10;1.00;;;;;;;17.98;34.83;98362.09;4940855;28;20438;-91
2023/03/26 11:25:20;;;;;;;;;;;;;;;;;;;;;
2023/03/26 11:28:23;;;;;;;3.03;1.20;;;;;;;18.13;34.74;98360.34;4941168;28;20499;-90
2023/03/26 11:31:21;;;;;;;;;;;;;;;;;;;;;
2023/03/26 11:34:33;;;;;;;;;;;;;;;;;;;;;
2023/03/26 11:37:15;;;;;;;;;;;;;;;;;;;;;
2023/03/26 11:39:55;;;;;;;1.60;0.85;;;;;;;17.85;34.20;98342.25;4946384;28;20445;-90
2023/03/26 11:42:41;;;;;;;;;;;;;;;;;;;;;
2023/03/26 11:45:23;;;;;;;1.53;1.07;;;;;;;17.47;34.02;98350.06;4948064;28;20865;-90
2023/03/26 11:48:24;;;;;;;;;;;;;;;;;;;;;
2023/03/26 11:51:09;;;;;;;1.25;0.80;;;;;;;17.14;34.51;98370.53;4937499;28;20254;-90
2023/03/26 11:54:16;;;;;;;1.52;0.90;;;;;;;16.86;34.58;98379.91;4967561;28;20198;-91
2023/03/26 11:57:42;;;;;;;;;;;;;;;;;;;;;
2023/03/26 12:00:44;;;;;;;0.90;0.60;;;;;;;16.25;35.36;98395.25;4963786;28;20220;-89
2023/03/26 12:03:22;;;;;;;4.32;1.15;;;;;;;16.03;35.90;98394.88;4968289;28;20180;-88
2023/03/26 12:06:14;;;;;;;1.75;0.80;;;;;;;15.84;36.63;98382.75;4967209;28;20225;-91
2023/03/26 12:09:33;;;;;;;;;;;;;;;;;;;;;
2023/03/26 12:12:58;;;;;;;0.95;0.70;;;;;;;15.31;38.86;98377.72;4933108;28;20314;-91
2023/03/26 12:18:32;;;;;;;1.45;0.70;;;;;;;15.00;40.43;98373.75;4987427;28;20322;-80
2023/03/26 12:21:18;;;;;;;2.35;0.70;;;;;;;14.92;40.52;98370.22;4976927;28;20227;-82
2023/03/26 12:23:55;;;;;;;1.55;0.73;;;;;;;14.83;40.80;98356.97;4978354;28;20184;-80
2023/03/26 12:26:41;;;;;;;2.03;1.35;;;;;;;14.72;41.09;98367.78;4960210;23;20440;-79
2023/03/26 12:29:13;;;;;;;2.05;1.85;;;;;;;14.65;41.12;98361.44;4944730;28;20220;-79
2023/03/26 12:32:03;;;;;;;1.45;1.35;;;;;;;14.57;41.28;98345.53;4948545;28;20220;-79
2023/03/26 12:34:33;;;;;;;2.05;1.40;;;;;;;14.49;41.42;98359.47;4935939;28;21078;-79
2023/03/26 12:37:00;;;;;;;1.63;1.30;;;;;;;14.46;41.66;98349.22;4942048;28;20204;-81
2023/03/26 12:39:38;;;;;;;2.10;1.50;;;;;;;14.46;41.89;98328.09;4939174;28;20221;-80
2023/03/26 12:42:22;;;;;;;3.33;1.85;;;;;;;14.45;41.58;98333.53;4927734;28;20263;-79
2023/03/26 12:44:51;;;;;;;1.25;1.02;;;;;;;14.47;41.91;98337.66;4947895;28;20223;-79
2023/03/26 12:47:21;;;;;;;2.10;1.13;;;;;;;14.38;42.51;98338.59;4949511;28;20200;-79
2023/03/26 12:49:50;;;;;;;3.00;1.00;;;;;;;14.31;42.15;98338.38;4939638;28;20705;-80
2023/03/26 12:52:42;;;;;;;3.13;1.02;;;;;;;14.26;42.38;98327.44;4946971;28;20227;-80
2023/03/26 12:55:30;;;;;;;2.00;1.10;;;;;;;14.23;42.90;98319.81;4939964;28;20223;-79
2023/03/26 12:58:30;;;;;;;2.33;1.30;;;;;;;14.23;42.64;98313.69;4947075;28;20191;-79
2023/03/26 13:01:21;;;;;;;3.33;1.45;;;;;;;14.25;42.39;98304.63;4945351;28;20230;-79